Florida, New Mexico
Current Conditions -  °F | °C
As of 4:15 AM on Monday 20 Oct 2014 (Local Time) from KONM Reporting Station
Clear Clear  
Wind Chill: 51°   Ceiling: Unl
Heat Index: 51°   Visibility: 10mi
Dew Point: 50°   Wind: 3mph
Humidity: 96%   Direction: 190°S
Pressure: 30.17"   Gusts: NA
Location:  33.8946°N, 106.565°W
Report Text: KONM 201015Z AUTO 19003KT 10SM CLR 11/10 A3017 RMK AO2 T01080102
Loading
Personal Weather Stations






























Interactive Weather Map
Tropical Storm Tracking
New forecast layout! Learn more

10-Day Weather Forecast

Advertisements
Track Severe Weather on mobile